Time;durP1;ratioP1;P1;durP2;ratioP2;P2;SDS_P1;SDS_P2;PMS_P1;PMS_P2;Temp;Humidity;BMP_temperature;BMP_pressure;BME280_temperature;BME280_humidity;BME280_pressure;Samples;Min_cycle;Max_cycle;Signal;HPM_P1;HPM_P2
2022/11/08 00:02:25;;;;;;;2.53;2.03;;;;;;;16.58;50.74;95545.59;4965242;28;20823;-62
2022/11/08 00:04:52;;;;;;;3.03;2.83;;;;;;;16.71;50.38;95552.09;4961531;28;20510;-62
2022/11/08 00:15:39;;;;;;;3.07;2.57;;;;;;;16.98;50.31;95550.53;4972959;28;20497;-63
2022/11/08 00:18:06;;;;;;;1.93;1.63;;;;;;;17.05;50.21;95547.53;4972638;28;20446;-63
2022/11/08 00:20:33;;;;;;;3.70;2.77;;;;;;;16.82;50.09;95553.59;4972870;28;20549;-64
2022/11/08 00:23:00;;;;;;;4.13;2.80;;;;;;;16.82;50.14;95548.31;4969313;28;20798;-61
2022/11/08 00:25:27;;;;;;;1.73;1.60;;;;;;;17.04;50.08;95541.44;4962652;28;20533;-62
2022/11/08 00:27:54;;;;;;;0.83;0.83;;;;;;;16.99;50.35;95543.34;4972541;28;20458;-62
2022/11/08 00:30:21;;;;;;;0.93;0.93;;;;;;;17.05;50.07;95539.59;4972957;28;20447;-62
2022/11/08 00:32:48;;;;;;;4.30;1.57;;;;;;;17.04;49.77;95540.69;4972989;28;20540;-62
2022/11/08 00:35:15;;;;;;;1.80;1.70;;;;;;;16.78;50.68;95532.19;4972178;28;20947;-62
2022/11/08 00:37:42;;;;;;;2.53;2.33;;;;;;;16.88;50.47;95542.66;4972205;28;20456;-62
2022/11/08 00:40:09;;;;;;;0.87;0.87;;;;;;;16.90;50.71;95545.03;4968260;28;20444;-62
2022/11/08 00:42:36;;;;;;;1.77;1.67;;;;;;;17.05;50.10;95547.53;4963577;28;20451;-66
2022/11/08 00:45:03;;;;;;;3.90;2.37;;;;;;;17.01;50.31;95542.03;4970683;28;20920;-62
2022/11/08 00:47:30;;;;;;;9.07;3.13;;;;;;;17.16;49.74;95533.94;4972372;28;20447;-60
2022/11/08 00:49:57;;;;;;;15.97;3.73;;;;;;;17.19;49.72;95538.66;4972189;28;20543;-62
2022/11/08 00:52:23;;;;;;;2.17;2.00;;;;;;;17.19;49.10;95538.66;4956289;28;20477;-62
2022/11/08 00:54:50;;;;;;;6.47;2.50;;;;;;;17.05;49.91;95532.47;4972342;28;20485;-61
2022/11/08 00:57:17;;;;;;;3.43;1.90;;;;;;;17.07;49.72;95535.63;4958284;28;20543;-61
2022/11/08 00:59:47;;;;;;;1.43;1.33;;;;;;;17.05;49.92;95543.06;4964117;28;20471;-62
2022/11/08 01:02:15;;;;;;;1.73;1.30;;;;;;;17.00;50.22;95545.75;4966632;28;20443;-62
2022/11/08 01:04:42;;;;;;;3.00;1.97;;;;;;;17.05;50.03;95536.94;4965149;28;20444;-62
2022/11/08 01:07:09;;;;;;;0.93;0.67;;;;;;;17.22;49.52;95527.50;4965218;28;20478;-63
2022/11/08 01:09:36;;;;;;;3.23;2.93;;;;;;;17.01;49.75;95536.72;4971773;28;20471;-62
2022/11/08 01:12:03;;;;;;;6.40;2.70;;;;;;;17.07;49.52;95538.25;4971780;28;20446;-62
2022/11/08 01:14:29;;;;;;;1.60;1.53;;;;;;;17.16;49.79;95539.22;4957970;28;20486;-62
2022/11/08 01:16:56;;;;;;;1.10;1.07;;;;;;;17.27;49.13;95534.63;4962868;28;20443;-61
2022/11/08 01:19:23;;;;;;;3.90;3.27;;;;;;;17.32;49.23;95534.56;4967313;28;20473;-62
2022/11/08 01:21:50;;;;;;;3.30;1.63;;;;;;;17.19;49.18;95522.78;4971435;28;20442;-61
2022/11/08 01:24:17;;;;;;;1.50;1.40;;;;;;;17.29;49.75;95535.13;4957738;28;20447;-63
2022/11/08 01:26:44;;;;;;;0.87;0.87;;;;;;;17.34;49.22;95536.91;4958059;28;20451;-63
2022/11/08 01:29:11;;;;;;;2.93;2.53;;;;;;;17.35;49.33;95534.00;4971785;28;20541;-61
2022/11/08 01:31:38;;;;;;;1.37;1.27;;;;;;;17.26;49.41;95521.66;4967531;28;20530;-62
2022/11/08 01:34:05;;;;;;;1.77;1.67;;;;;;;17.27;49.53;95533.81;4952141;28;20483;-61
2022/11/08 01:36:32;;;;;;;5.17;3.70;;;;;;;17.14;49.76;95529.97;4954847;28;20479;-60
2022/11/08 01:38:59;;;;;;;6.20;3.03;;;;;;;16.69;51.00;95533.84;4971298;28;21052;-62
2022/11/08 01:41:26;;;;;;;2.00;1.90;;;;;;;16.80;50.54;95527.41;4971447;28;20446;-61
2022/11/08 01:43:55;;;;;;;4.20;2.00;;;;;;;16.93;50.35;95529.38;4971222;28;20458;-61
2022/11/08 01:46:29;;;;;;;5.47;3.83;;;;;;;17.16;49.81;95528.63;4970988;28;20482;-61
2022/11/08 01:48:59;;;;;;;7.30;2.00;;;;;;;17.19;49.33;95533.38;4971271;28;20438;-62
2022/11/08 01:51:35;;;;;;;2.63;1.97;;;;;;;17.04;50.13;95530.88;4958286;28;20618;-61
2022/11/08 01:54:06;;;;;;;3.40;3.03;;;;;;;16.96;49.99;95522.75;4965155;28;20490;-61
2022/11/08 01:56:35;;;;;;;1.30;1.20;;;;;;;17.08;50.29;95534.53;4961105;28;20562;-62
2022/11/08 01:59:06;;;;;;;1.83;1.73;;;;;;;17.16;49.71;95523.34;4957269;28;20436;-63
2022/11/08 02:01:33;;;;;;;1.50;1.43;;;;;;;17.02;49.67;95511.03;4970489;28;20466;-62
2022/11/08 02:04:02;;;;;;;3.20;2.90;;;;;;;17.12;49.87;95529.47;4957224;28;20490;-62
2022/11/08 02:06:32;;;;;;;1.60;1.37;;;;;;;17.18;49.23;95525.72;4971160;28;20541;-60
2022/11/08 02:09:02;;;;;;;2.03;1.63;;;;;;;17.19;49.90;95528.06;4970812;28;20446;-61
2022/11/08 02:11:29;;;;;;;1.07;1.07;;;;;;;17.12;49.91;95529.47;4958076;28;21268;-62
2022/11/08 02:13:57;;;;;;;5.13;1.73;;;;;;;17.10;49.57;95545.63;4957849;28;20507;-62
2022/11/08 02:16:23;;;;;;;1.73;1.63;;;;;;;17.04;49.77;95540.69;4955616;28;20444;-62
2022/11/08 02:18:50;;;;;;;5.07;2.77;;;;;;;17.03;50.74;95529.28;4970497;28;20443;-62
2022/11/08 02:21:31;;;;;;;3.13;2.83;;;;;;;17.13;49.64;95529.19;4967449;28;20546;-61
2022/11/08 02:24:00;;;;;;;1.73;1.63;;;;;;;16.96;50.17;95541.28;4951080;28;20539;-61
2022/11/08 02:26:30;;;;;;;4.10;2.70;;;;;;;16.80;50.88;95535.34;4955046;28;20513;-63
2022/11/08 02:28:58;;;;;;;1.53;1.27;;;;;;;16.93;50.33;95537.31;4960900;28;20447;-61
2022/11/08 02:31:25;;;;;;;2.00;1.90;;;;;;;16.91;50.03;95536.84;4966974;28;20935;-63
2022/11/08 02:33:52;;;;;;;2.57;1.97;;;;;;;16.83;50.26;95533.97;4961172;28;20853;-62
2022/11/08 02:36:23;;;;;;;1.47;1.40;;;;;;;17.02;50.49;95538.28;4964796;28;20812;-62
2022/11/08 02:38:53;;;;;;;2.07;1.93;;;;;;;16.53;51.10;95539.53;4951291;28;20451;-64
2022/11/08 02:41:20;;;;;;;6.27;2.77;;;;;;;16.21;52.10;95545.28;4965287;28;20469;-63
2022/11/08 02:43:47;;;;;;;1.53;1.43;;;;;;;16.50;51.65;95540.06;4970328;28;20478;-62
2022/11/08 02:46:14;;;;;;;3.73;2.90;;;;;;;16.02;52.28;95545.13;4969903;28;20473;-61
2022/11/08 02:48:41;;;;;;;2.07;1.37;;;;;;;15.82;52.82;95539.19;4965404;28;21061;-62
2022/11/08 02:51:08;;;;;;;3.20;2.90;;;;;;;16.22;51.98;95534.41;4950922;28;20470;-61
2022/11/08 02:53:34;;;;;;;3.53;2.87;;;;;;;16.17;51.92;95533.66;4963797;28;20541;-62
2022/11/08 02:56:01;;;;;;;0.60;0.60;;;;;;;16.07;52.58;95536.38;4956312;28;20482;-62
2022/11/08 02:58:28;;;;;;;11.37;3.87;;;;;;;16.21;51.79;95538.16;4959459;28;20443;-62
2022/11/08 03:00:55;;;;;;;1.87;1.60;;;;;;;16.13;51.59;95535.28;4964090;28;20486;-62
2022/11/08 03:03:22;;;;;;;1.10;1.10;;;;;;;16.20;51.88;95536.53;4960242;28;20903;-62
2022/11/08 03:05:48;;;;;;;2.13;2.03;;;;;;;16.41;51.94;95537.22;4970152;28;20453;-61
2022/11/08 03:08:15;;;;;;;3.03;1.43;;;;;;;16.34;51.80;95536.72;4962568;28;20443;-61
2022/11/08 03:10:43;;;;;;;0.77;0.77;;;;;;;16.04;52.25;95540.34;4964375;28;20446;-61
2022/11/08 03:13:10;;;;;;;2.03;1.93;;;;;;;16.12;52.47;95528.41;4957080;28;20457;-63
2022/11/08 03:15:36;;;;;;;1.20;1.20;;;;;;;16.42;51.72;95538.81;4969838;28;20569;-62
2022/11/08 03:18:03;;;;;;;0.50;0.50;;;;;;;16.33;51.56;95545.72;4956359;28;20911;-62
2022/11/08 03:20:30;;;;;;;1.57;1.47;;;;;;;16.27;51.54;95546.84;4959796;28;20821;-62
2022/11/08 03:23:01;;;;;;;2.57;2.03;;;;;;;16.56;51.05;95544.28;4967243;28;20442;-63
2022/11/08 03:25:29;;;;;;;2.23;2.03;;;;;;;16.24;52.19;95547.38;4969721;28;20569;-61
2022/11/08 03:28:04;;;;;;;2.77;2.53;;;;;;;16.43;51.88;95545.66;4968072;28;20446;-64
2022/11/08 03:30:32;;;;;;;1.83;1.47;;;;;;;16.14;52.47;95547.44;4950545;28;20554;-61
2022/11/08 03:32:58;;;;;;;0.87;0.87;;;;;;;16.36;51.80;95542.53;4964253;28;20509;-62
2022/11/08 03:35:25;;;;;;;1.87;1.70;;;;;;;16.61;51.08;95542.38;4958031;28;20500;-61
2022/11/08 03:37:54;;;;;;;5.27;4.13;;;;;;;16.62;50.95;95548.47;4956686;28;20466;-61
2022/11/08 03:40:22;;;;;;;3.23;2.93;;;;;;;16.84;50.79;95546.16;4956873;28;20441;-61
2022/11/08 03:42:49;;;;;;;2.67;2.40;;;;;;;16.62;50.61;95551.91;4969693;28;20537;-62
2022/11/08 03:45:16;;;;;;;2.67;2.47;;;;;;;16.51;51.20;95547.75;4970250;28;20557;-61
2022/11/08 03:47:45;;;;;;;1.60;1.50;;;;;;;16.69;51.21;95555.03;4962850;28;20975;-61
2022/11/08 03:50:14;;;;;;;1.60;1.50;;;;;;;16.46;52.18;95550.38;4968693;28;20784;-61
2022/11/08 03:52:42;;;;;;;0.93;0.93;;;;;;;16.32;52.92;95554.72;4959515;28;20972;-62
2022/11/08 03:55:11;;;;;;;2.70;1.57;;;;;;;16.35;52.69;95543.59;4961443;28;21024;-61
2022/11/08 03:57:41;;;;;;;1.60;1.50;;;;;;;16.56;52.79;95545.06;4972185;28;20478;-62
2022/11/08 04:00:10;;;;;;;2.13;2.00;;;;;;;16.36;53.18;95553.13;4973477;28;20483;-62
2022/11/08 04:02:37;;;;;;;3.07;1.80;;;;;;;16.32;52.99;95544.16;4973258;28;20450;-61
2022/11/08 04:05:06;;;;;;;7.73;3.87;;;;;;;16.21;52.92;95545.28;4963650;28;20462;-61
2022/11/08 04:07:33;;;;;;;7.27;2.93;;;;;;;15.91;53.38;95548.13;4966945;28;20458;-62
2022/11/08 04:10:00;;;;;;;1.33;1.23;;;;;;;16.14;53.05;95552.72;4962100;28;20868;-62
2022/11/08 04:15:17;;;;;;;2.00;1.90;;;;;;;15.27;55.99;95552.56;4964027;28;20483;-61
2022/11/08 04:23:18;;;;;;;2.43;2.20;;;;;;;15.41;56.38;95545.66;4973081;28;20950;-60
2022/11/08 04:25:51;;;;;;;2.90;2.63;;;;;;;15.61;55.42;95542.94;4972908;28;20449;-61
2022/11/08 04:28:18;;;;;;;1.97;1.87;;;;;;;15.59;55.70;95545.06;4968060;28;20436;-61
2022/11/08 04:30:51;;;;;;;1.37;1.27;;;;;;;15.79;55.52;95551.06;4953692;28;20468;-62
2022/11/08 04:33:17;;;;;;;1.43;1.37;;;;;;;15.93;54.79;95535.41;4953237;28;20491;-62
2022/11/08 04:35:44;;;;;;;0.97;0.97;;;;;;;16.22;54.12;95541.59;4953198;28;20491;-61
2022/11/08 04:38:11;;;;;;;1.63;1.53;;;;;;;16.00;55.14;95536.66;4969174;28;20564;-62
2022/11/08 04:40:38;;;;;;;2.47;2.30;;;;;;;16.13;54.97;95543.19;4963949;28;20450;-62
2022/11/08 04:43:05;;;;;;;1.70;1.60;;;;;;;16.24;54.51;95548.16;4967493;28;20950;-62
2022/11/08 04:45:32;;;;;;;1.87;1.70;;;;;;;16.33;54.41;95542.31;4972161;28;21017;-61
2022/11/08 04:47:59;;;;;;;4.63;3.97;;;;;;;16.30;53.99;95541.00;4960041;28;20439;-61
2022/11/08 04:50:25;;;;;;;2.00;1.83;;;;;;;16.77;52.85;95546.47;4967138;28;20470;-62
2022/11/08 04:52:53;;;;;;;12.97;1.97;;;;;;;16.68;52.78;95552.63;4957125;28;20454;-61
2022/11/08 04:55:21;;;;;;;0.97;0.97;;;;;;;16.75;53.26;95542.53;4971689;28;20569;-60
2022/11/08 04:57:49;;;;;;;3.70;2.23;;;;;;;16.46;53.72;95545.09;4972391;28;20478;-61
2022/11/08 05:00:16;;;;;;;2.30;2.10;;;;;;;16.71;52.81;95555.53;4969638;28;20556;-61
2022/11/08 05:02:43;;;;;;;7.20;2.30;;;;;;;16.58;53.25;95561.47;4951651;28;20454;-61
2022/11/08 05:05:10;;;;;;;1.03;1.03;;;;;;;16.76;53.31;95566.06;4966032;28;20582;-61
2022/11/08 05:07:37;;;;;;;1.67;1.57;;;;;;;16.55;53.60;95543.47;4952845;28;20542;-61
2022/11/08 05:10:04;;;;;;;1.83;1.73;;;;;;;16.67;53.25;95557.16;4968138;28;20898;-62
2022/11/08 05:12:31;;;;;;;1.57;1.47;;;;;;;16.58;54.03;95558.81;4972220;28;20876;-62
2022/11/08 05:14:58;;;;;;;1.40;1.30;;;;;;;16.59;53.86;95552.44;4958195;28;20471;-61
2022/11/08 05:17:25;;;;;;;4.10;3.70;;;;;;;16.69;53.77;95565.63;4965060;28;20459;-61
2022/11/08 05:25:23;;;;;;;6.03;4.97;;;;;;;15.39;57.14;95566.25;4953590;28;20451;-62
2022/11/08 05:27:50;;;;;;;2.33;2.13;;;;;;;15.49;57.48;95571.53;4965144;28;20453;-63
2022/11/08 05:30:16;;;;;;;1.17;1.17;;;;;;;16.12;55.06;95566.22;4970499;28;20509;-62
2022/11/08 05:32:43;;;;;;;1.70;1.60;;;;;;;16.59;54.19;95570.97;4967514;28;20444;-62
2022/11/08 05:35:10;;;;;;;3.10;2.60;;;;;;;16.59;54.31;95573.59;4961831;28;20494;-62
2022/11/08 05:37:40;;;;;;;1.87;1.77;;;;;;;16.49;54.42;95557.03;4968620;28;20537;-62
2022/11/08 05:40:08;;;;;;;1.80;1.70;;;;;;;16.49;54.90;95555.19;4956781;28;20558;-61
2022/11/08 05:42:35;;;;;;;2.80;2.20;;;;;;;16.53;54.68;95556.19;4966083;28;20470;-62
2022/11/08 05:45:02;;;;;;;1.63;1.53;;;;;;;16.78;53.86;95569.25;4951893;28;20480;-61
2022/11/08 05:47:35;;;;;;;2.40;2.20;;;;;;;16.88;53.78;95569.13;4968255;28;20442;-62
2022/11/08 05:50:03;;;;;;;1.80;0.87;;;;;;;16.77;54.04;95561.59;4970388;28;20481;-60
2022/11/08 05:52:30;;;;;;;2.13;1.77;;;;;;;16.77;54.30;95572.94;4954779;28;20533;-63
2022/11/08 05:54:56;;;;;;;8.23;6.43;;;;;;;16.95;54.46;95569.59;4960858;28;20546;-63
2022/11/08 05:57:24;;;;;;;12.73;9.43;;;;;;;17.10;54.34;95577.41;4951229;28;20530;-60
2022/11/08 05:59:50;;;;;;;3.93;3.53;;;;;;;16.96;54.16;95578.34;4952539;28;20458;-63
2022/11/08 06:02:17;;;;;;;1.93;1.77;;;;;;;16.90;53.90;95571.50;4964148;28;20987;-62
2022/11/08 06:04:44;;;;;;;1.80;1.70;;;;;;;16.96;53.46;95576.50;4965454;28;20876;-61
2022/11/08 06:07:11;;;;;;;2.23;2.13;;;;;;;16.90;53.74;95582.88;4950812;28;20454;-63
2022/11/08 06:09:38;;;;;;;3.67;3.37;;;;;;;16.24;58.09;95593.13;4964074;28;20448;-63
2022/11/08 06:12:06;;;;;;;1.43;1.37;;;;;;;16.50;58.47;95596.44;4960534;28;20537;-63
2022/11/08 06:14:33;;;;;;;1.23;1.20;;;;;;;16.57;57.85;95599.56;4956903;28;20496;-62
2022/11/08 06:17:00;;;;;;;4.43;3.13;;;;;;;16.55;57.68;95596.38;4970490;28;20993;-62
2022/11/08 06:19:26;;;;;;;1.97;1.60;;;;;;;16.89;56.67;95602.50;4957252;28;20454;-62
2022/11/08 06:21:53;;;;;;;1.47;1.37;;;;;;;16.80;57.33;95598.88;4964282;28;20455;-63
2022/11/08 06:24:20;;;;;;;2.73;1.73;;;;;;;16.51;59.07;95594.59;4951017;28;20954;-63
2022/11/08 06:26:47;;;;;;;2.23;2.03;;;;;;;16.90;57.61;95608.56;4958562;28;20451;-61
2022/11/08 06:29:14;;;;;;;4.10;3.30;;;;;;;16.99;57.26;95613.00;4950773;28;20999;-60
2022/11/08 06:31:41;;;;;;;9.70;8.03;;;;;;;17.23;56.55;95616.50;4964465;28;20526;-60
2022/11/08 06:34:09;;;;;;;8.87;7.33;;;;;;;17.38;56.30;95620.06;4960548;28;20951;-59
2022/11/08 06:36:36;;;;;;;13.33;6.73;;;;;;;17.11;56.52;95623.22;4956659;28;20515;-60
2022/11/08 06:39:03;;;;;;;5.53;4.30;;;;;;;17.13;56.44;95629.03;4970207;28;20874;-62
2022/11/08 06:41:31;;;;;;;6.73;2.37;;;;;;;16.52;59.24;95620.75;4967806;28;20446;-61
2022/11/08 06:43:58;;;;;;;3.63;1.90;;;;;;;16.55;58.51;95620.19;4956489;28;20462;-60
2022/11/08 06:46:25;;;;;;;2.77;2.50;;;;;;;16.57;58.68;95626.00;4967845;28;20498;-62
2022/11/08 06:48:52;;;;;;;14.20;4.87;;;;;;;16.85;57.43;95621.84;4962398;28;20524;-61
2022/11/08 06:51:19;;;;;;;4.07;3.13;;;;;;;17.02;56.17;95630.97;4948076;28;20443;-62
2022/11/08 06:53:47;;;;;;;4.67;3.60;;;;;;;17.08;55.93;95626.41;4962969;28;20474;-60
2022/11/08 06:56:13;;;;;;;6.63;2.87;;;;;;;17.18;55.99;95632.44;4969084;28;20490;-61
2022/11/08 06:58:40;;;;;;;1.23;1.20;;;;;;;17.34;55.33;95619.03;4957465;28;20498;-61
2022/11/08 07:01:09;;;;;;;2.30;2.10;;;;;;;17.35;56.30;95631.22;4969101;28;21037;-61
2022/11/08 07:03:36;;;;;;;11.70;3.10;;;;;;;17.37;55.94;95631.75;4958668;28;20502;-60
2022/11/08 07:06:05;;;;;;;1.60;1.13;;;;;;;17.41;55.83;95635.41;4963566;28;21058;-60
2022/11/08 07:08:32;;;;;;;10.07;2.03;;;;;;;17.21;55.53;95631.88;4960749;28;20978;-61
2022/11/08 07:11:01;;;;;;;1.93;1.83;;;;;;;17.50;55.28;95631.88;4969419;28;20953;-60
2022/11/08 07:13:28;;;;;;;3.40;2.83;;;;;;;17.04;56.04;95633.34;4961577;28;20444;-61
2022/11/08 07:15:59;;;;;;;2.77;2.03;;;;;;;17.30;55.68;95618.03;4951152;28;20495;-60
2022/11/08 07:18:27;;;;;;;4.40;2.80;;;;;;;17.45;55.05;95625.81;4962230;28;20502;-61
2022/11/08 07:20:59;;;;;;;1.73;1.63;;;;;;;17.46;54.82;95628.22;4967448;28;20493;-64
2022/11/08 07:23:26;;;;;;;3.27;2.97;;;;;;;17.62;54.46;95631.50;4954105;28;20530;-62
2022/11/08 07:25:53;;;;;;;2.03;1.93;;;;;;;17.41;55.35;95636.19;4967098;28;20450;-61
2022/11/08 07:28:20;;;;;;;5.70;2.37;;;;;;;17.50;55.59;95639.06;4959930;28;20490;-60
2022/11/08 07:30:47;;;;;;;1.43;1.33;;;;;;;17.58;55.17;95635.78;4962840;28;20475;-61
2022/11/08 07:33:15;;;;;;;2.53;2.27;;;;;;;17.54;55.15;95629.47;4967871;28;20954;-62
2022/11/08 07:35:45;;;;;;;3.10;2.80;;;;;;;17.59;54.53;95637.38;4963969;28;20478;-61
2022/11/08 07:38:12;;;;;;;2.20;1.80;;;;;;;17.61;54.71;95640.53;4958027;28;20517;-61
2022/11/08 07:40:38;;;;;;;0.83;0.83;;;;;;;17.48;54.71;95620.00;4962571;28;20525;-61
2022/11/08 07:43:06;;;;;;;2.77;2.50;;;;;;;17.68;54.60;95641.00;4972653;28;20525;-65
2022/11/08 07:45:39;;;;;;;5.17;2.67;;;;;;;17.62;55.23;95642.91;4961323;28;20884;-62
2022/11/08 07:48:08;;;;;;;3.57;2.03;;;;;;;17.48;55.16;95634.03;4973437;28;20454;-62
2022/11/08 07:50:40;;;;;;;1.63;1.53;;;;;;;17.91;53.99;95634.91;4953662;28;20502;-64
2022/11/08 07:53:08;;;;;;;1.17;1.10;;;;;;;17.78;54.30;95632.91;4963113;28;20457;-63
2022/11/08 07:55:36;;;;;;;7.10;3.00;;;;;;;17.86;54.67;95629.66;4959660;28;20522;-65
2022/11/08 07:58:04;;;;;;;2.27;2.07;;;;;;;18.02;53.91;95631.06;4973477;28;20474;-64
2022/11/08 08:00:35;;;;;;;1.43;1.10;;;;;;;17.75;54.69;95630.84;4959821;28;20451;-67
2022/11/08 08:03:03;;;;;;;2.10;2.00;;;;;;;17.87;54.92;95628.56;4965790;28;20925;-64
2022/11/08 08:05:34;;;;;;;2.50;1.63;;;;;;;17.89;54.15;95632.53;4967883;28;20461;-61
2022/11/08 08:08:01;;;;;;;3.23;3.00;;;;;;;17.58;55.93;95635.78;4967417;28;20962;-67
2022/11/08 08:10:30;;;;;;;2.50;2.27;;;;;;;17.80;54.88;95633.44;4965851;28;20957;-64
2022/11/08 08:12:57;;;;;;;3.63;3.07;;;;;;;17.57;55.57;95636.88;4954995;28;20443;-65
2022/11/08 08:15:24;;;;;;;1.30;1.20;;;;;;;17.90;54.62;95636.00;4953975;28;20506;-61
2022/11/08 08:17:51;;;;;;;0.77;0.77;;;;;;;17.77;54.35;95629.47;4969083;28;20486;-62
2022/11/08 08:20:18;;;;;;;1.83;1.73;;;;;;;17.63;55.00;95639.19;4964601;28;20537;-65
2022/11/08 08:22:50;;;;;;;2.23;1.53;;;;;;;17.98;53.80;95640.66;4954566;28;20459;-65
2022/11/08 08:25:18;;;;;;;1.50;1.40;;;;;;;17.97;54.09;95639.09;4965226;28;20525;-64
2022/11/08 08:27:46;;;;;;;2.93;2.67;;;;;;;17.97;53.82;95639.09;4952554;28;20451;-66
2022/11/08 08:30:13;;;;;;;2.03;1.93;;;;;;;17.81;54.80;95646.41;4972560;28;20438;-60
2022/11/08 08:32:40;;;;;;;3.30;3.00;;;;;;;17.56;54.28;95628.13;4972703;28;20453;-63
2022/11/08 08:35:07;;;;;;;2.53;2.33;;;;;;;17.78;54.27;95646.19;4972600;28;20466;-63
2022/11/08 08:37:34;;;;;;;0.67;0.67;;;;;;;18.16;52.91;95639.91;4972761;28;20485;-61
2022/11/08 08:40:01;;;;;;;14.43;3.27;;;;;;;18.12;52.83;95647.63;4973098;28;20814;-64
2022/11/08 08:42:28;;;;;;;6.20;2.13;;;;;;;17.92;53.14;95642.56;4972667;28;20945;-62
2022/11/08 08:44:55;;;;;;;5.37;2.53;;;;;;;17.64;54.07;95640.78;4956638;28;20781;-63
2022/11/08 08:47:22;;;;;;;1.03;1.03;;;;;;;17.94;53.32;95645.72;4960873;28;20443;-61
2022/11/08 08:49:49;;;;;;;1.17;1.17;;;;;;;18.23;52.43;95647.53;4958882;28;20858;-63
2022/11/08 08:52:15;;;;;;;1.90;1.43;;;;;;;17.47;55.02;95651.00;4952925;28;20555;-64
2022/11/08 08:54:42;;;;;;;2.93;2.50;;;;;;;17.60;54.28;95649.56;4960916;28;21044;-64
2022/11/08 08:57:09;;;;;;;4.03;2.23;;;;;;;17.76;54.39;95653.63;4958439;28;21037;-65
2022/11/08 08:59:36;;;;;;;5.13;1.97;;;;;;;17.90;53.90;95643.94;4965615;28;21072;-66
2022/11/08 09:02:23;;;;;;;1.70;1.60;;;;;;;17.83;53.72;95643.47;4954433;28;20439;-66
2022/11/08 09:04:50;;;;;;;1.20;1.17;;;;;;;17.57;53.96;95650.13;4971993;28;20504;-69
2022/11/08 09:07:17;;;;;;;1.17;1.07;;;;;;;17.55;54.41;95646.97;4958849;28;20455;-63
2022/11/08 09:09:44;;;;;;;2.47;1.07;;;;;;;17.65;53.83;95630.94;4958992;28;20473;-67
2022/11/08 09:12:11;;;;;;;6.03;1.20;;;;;;;17.65;54.41;95652.16;4960197;28;20979;-63
2022/11/08 09:14:40;;;;;;;2.13;1.63;;;;;;;17.93;53.60;95648.66;4957029;28;20446;-64
2022/11/08 09:17:07;;;;;;;3.87;1.53;;;;;;;18.03;53.15;95645.88;4971898;28;20478;-67
2022/11/08 09:19:34;;;;;;;4.40;2.33;;;;;;;18.50;52.12;95643.22;4968791;28;20475;-66
2022/11/08 09:22:01;;;;;;;0.87;0.87;;;;;;;18.71;51.45;95631.22;4961720;28;20446;-63
2022/11/08 09:24:28;;;;;;;4.70;2.27;;;;;;;18.35;52.19;95645.22;4958170;28;20447;-64
2022/11/08 09:26:55;;;;;;;3.10;2.67;;;;;;;18.03;53.34;95643.22;4964320;28;20534;-64
2022/11/08 09:29:21;;;;;;;3.53;2.57;;;;;;;18.27;52.46;95637.91;4952671;28;20599;-64
2022/11/08 09:31:48;;;;;;;1.87;1.70;;;;;;;18.20;52.43;95638.25;4957677;28;20446;-66
2022/11/08 09:34:15;;;;;;;1.73;1.63;;;;;;;18.30;52.35;95640.00;4971540;28;20960;-67
2022/11/08 09:36:48;;;;;;;1.20;1.10;;;;;;;18.71;51.38;95628.56;4958353;28;20510;-64
2022/11/08 09:39:15;;;;;;;1.83;1.60;;;;;;;18.33;52.18;95632.25;4960778;28;21021;-65
2022/11/08 09:41:50;;;;;;;11.57;3.07;;;;;;;18.30;52.07;95638.16;4955157;28;20816;-64
2022/11/08 09:44:57;;;;;;;1.47;1.43;;;;;;;18.26;51.79;95626.50;4960685;28;20997;-63
2022/11/08 09:47:35;;;;;;;3.27;2.43;;;;;;;17.26;53.29;95638.19;4960877;28;20457;-63
2022/11/08 09:50:01;;;;;;;1.77;1.67;;;;;;;17.44;53.41;95625.06;4969465;28;22627;-66
2022/11/08 09:52:31;;;;;;;1.07;1.07;;;;;;;18.14;51.85;95628.78;4955611;28;21068;-63
2022/11/08 09:55:12;;;;;;;3.90;0.70;;;;;;;18.29;51.58;95623.28;4971148;28;20466;-64
2022/11/08 09:57:57;;;;;;;2.10;1.83;;;;;;;17.76;52.36;95624.47;4957965;28;20584;-65
2022/11/08 10:00:24;;;;;;;1.23;1.17;;;;;;;17.83;51.90;95619.59;4958977;28;20451;-64
2022/11/08 10:02:51;;;;;;;0.47;0.47;;;;;;;17.98;51.73;95624.72;4970887;28;20545;-63
2022/11/08 10:05:18;;;;;;;5.20;2.90;;;;;;;18.29;50.88;95614.53;4959809;28;20479;-68
2022/11/08 10:08:11;;;;;;;2.93;1.37;;;;;;;18.24;51.10;95618.06;4950434;28;20439;-68
2022/11/08 10:10:56;;;;;;;4.70;2.27;;;;;;;18.75;50.14;95608.31;4951731;28;20509;-66
2022/11/08 10:13:41;;;;;;;3.27;1.67;;;;;;;18.56;50.04;95606.75;4951813;28;20458;-69
2022/11/08 10:16:26;;;;;;;3.10;2.37;;;;;;;18.97;49.63;95592.56;4951273;28;20452;-64
2022/11/08 10:19:27;;;;;;;7.20;2.33;;;;;;;18.37;50.29;95601.44;4962625;28;20485;-64
2022/11/08 10:22:04;;;;;;;2.23;2.10;;;;;;;18.56;49.74;95599.56;4971204;28;20529;-65
2022/11/08 10:24:46;;;;;;;3.50;2.67;;;;;;;18.44;50.70;95595.78;4968548;28;20446;-64
2022/11/08 10:27:20;;;;;;;4.73;2.80;;;;;;;18.67;49.99;95595.69;4960900;28;20892;-64
2022/11/08 10:29:56;;;;;;;2.03;1.70;;;;;;;18.48;50.47;95592.28;4970188;28;21015;-65
2022/11/08 10:32:24;;;;;;;4.57;3.13;;;;;;;18.64;50.09;95590.97;4960189;28;20451;-62
2022/11/08 10:34:54;;;;;;;1.17;1.07;;;;;;;18.45;49.62;95589.41;4967059;28;20446;-66
2022/11/08 10:37:24;;;;;;;2.73;2.40;;;;;;;18.34;49.62;95586.06;4961529;28;20475;-63
2022/11/08 10:40:00;;;;;;;1.90;1.80;;;;;;;18.40;49.53;95584.91;4953151;28;20459;-64
2022/11/08 10:42:44;;;;;;;2.07;1.93;;;;;;;19.06;49.15;95572.22;4970531;28;20516;-65
2022/11/08 10:45:12;;;;;;;1.53;1.23;;;;;;;18.90;48.99;95565.56;4965708;28;21006;-62
2022/11/08 10:47:39;;;;;;;1.17;1.17;;;;;;;18.97;48.60;95566.03;4951039;28;21010;-61
2022/11/08 10:50:14;;;;;;;3.73;3.40;;;;;;;19.09;48.34;95563.66;4965500;28;20977;-64
2022/11/08 10:52:48;;;;;;;2.07;1.63;;;;;;;19.60;47.95;95570.75;4956385;28;20942;-65
2022/11/08 10:55:32;;;;;;;1.63;1.53;;;;;;;19.61;46.87;95562.50;4957315;28;20884;-66
2022/11/08 10:57:59;;;;;;;3.50;2.77;;;;;;;19.72;46.75;95563.06;4950732;28;20487;-64
2022/11/08 11:00:29;;;;;;;1.70;1.60;;;;;;;19.56;47.40;95557.25;4963943;28;20464;-64
2022/11/08 11:03:00;;;;;;;0.87;0.87;;;;;;;19.71;47.06;95554.31;4951055;28;20447;-64
2022/11/08 11:05:30;;;;;;;2.23;2.03;;;;;;;19.16;47.50;95556.09;4963240;28;21029;-64
2022/11/08 11:08:06;;;;;;;1.30;1.23;;;;;;;18.65;48.06;95558.03;4965409;28;20478;-64
2022/11/08 11:10:33;;;;;;;3.13;1.70;;;;;;;19.11;47.17;95550.09;4963913;28;20836;-65
2022/11/08 11:13:21;;;;;;;2.20;1.97;;;;;;;18.79;47.35;95556.22;4951869;28;20447;-64
2022/11/08 11:16:03;;;;;;;0.50;0.50;;;;;;;18.88;47.35;95549.19;4968379;28;20789;-66
2022/11/08 11:18:48;;;;;;;2.83;1.40;;;;;;;18.81;47.08;95540.00;4958985;28;20488;-64
2022/11/08 11:21:21;;;;;;;4.13;2.10;;;;;;;19.38;46.83;95547.50;4966943;28;21011;-65
2022/11/08 11:23:51;;;;;;;2.00;1.80;;;;;;;19.57;44.88;95544.75;4960675;28;20842;-64
2022/11/08 11:26:30;;;;;;;1.77;1.67;;;;;;;19.26;45.25;95551.69;4967358;28;20474;-66
2022/11/08 11:29:04;;;;;;;0.77;0.77;;;;;;;18.94;45.96;95542.69;4950549;28;20450;-63
2022/11/08 11:31:35;;;;;;;1.10;1.07;;;;;;;19.00;45.65;95546.84;4954236;28;20441;-68
2022/11/08 11:34:17;;;;;;;1.50;1.13;;;;;;;19.12;44.42;95533.84;4960296;28;21025;-67
2022/11/08 11:36:50;;;;;;;0.70;0.70;;;;;;;19.48;43.87;95535.91;4950350;28;20505;-64
2022/11/08 11:39:48;;;;;;;1.40;1.33;;;;;;;18.96;43.94;95535.22;4961547;28;21168;-64
2022/11/08 11:42:39;;;;;;;2.00;1.43;;;;;;;18.55;43.22;95538.81;4957978;28;20450;-64
2022/11/08 11:45:27;;;;;;;1.33;1.23;;;;;;;19.00;42.80;95522.94;4955634;28;20482;-67
2022/11/08 11:47:57;;;;;;;1.67;1.57;;;;;;;18.87;43.24;95531.66;4969991;28;20469;-64
2022/11/08 11:50:31;;;;;;;0.73;0.73;;;;;;;19.40;42.56;95517.97;4952647;28;20862;-67
2022/11/08 11:53:03;;;;;;;3.70;1.20;;;;;;;19.91;42.05;95521.19;4958268;28;20501;-66
2022/11/08 11:55:49;;;;;;;1.13;1.10;;;;;;;19.96;42.12;95523.75;4969658;28;20454;-63
2022/11/08 11:58:21;;;;;;;0.73;0.73;;;;;;;19.73;42.45;95522.09;4969670;28;20493;-65
2022/11/08 12:01:09;;;;;;;4.63;1.43;;;;;;;18.83;44.27;95529.88;4967337;28;20446;-69
2022/11/08 12:04:08;;;;;;;0.67;0.63;;;;;;;19.10;43.43;95525.38;4962386;28;20983;-66
2022/11/08 12:07:05;;;;;;;0.90;0.90;;;;;;;19.62;42.46;95526.03;4963638;28;20445;-66
2022/11/08 12:09:54;;;;;;;2.70;1.60;;;;;;;19.72;42.04;95520.53;4967427;28;20459;-63